sensor_id;sensor_type;location;lat;lon;timestamp;temperature;humidity
21331;DHT22;10824;51.632;4.950;2023-09-08T00:01:06;20.40;1.00
21331;DHT22;10824;51.632;4.950;2023-09-08T00:03:33;20.40;99.90
21331;DHT22;10824;51.632;4.950;2023-09-08T00:06:01;20.40;99.90
21331;DHT22;10824;51.632;4.950;2023-09-08T00:08:28;20.30;1.00
21331;DHT22;10824;51.632;4.950;2023-09-08T00:10:56;20.30;99.90
21331;DHT22;10824;51.632;4.950;2023-09-08T00:13:23;20.20;1.00
21331;DHT22;10824;51.632;4.950;2023-09-08T00:15:50;20.20;1.00
21331;DHT22;10824;51.632;4.950;2023-09-08T00:18:17;20.20;1.00
21331;DHT22;10824;51.632;4.950;2023-09-08T00:20:44;20.20;1.00
21331;DHT22;10824;51.632;4.950;2023-09-08T00:23:11;20.20;99.90
21331;DHT22;10824;51.632;4.950;2023-09-08T00:25:40;20.30;99.90
21331;DHT22;10824;51.632;4.950;2023-09-08T00:28:07;20.40;99.90
21331;DHT22;10824;51.632;4.950;2023-09-08T00:30:34;20.40;99.90
21331;DHT22;10824;51.632;4.950;2023-09-08T00:33:03;20.40;99.90
21331;DHT22;10824;51.632;4.950;2023-09-08T00:35:30;20.30;99.90
21331;DHT22;10824;51.632;4.950;2023-09-08T00:37:57;20.30;99.90
21331;DHT22;10824;51.632;4.950;2023-09-08T00:40:24;20.30;99.90
21331;DHT22;10824;51.632;4.950;2023-09-08T00:42:53;20.30;99.90
21331;DHT22;10824;51.632;4.950;2023-09-08T00:45:20;20.20;99.90
21331;DHT22;10824;51.632;4.950;2023-09-08T00:47:48;20.10;99.90
21331;DHT22;10824;51.632;4.950;2023-09-08T00:50:16;20.10;99.90
21331;DHT22;10824;51.632;4.950;2023-09-08T00:52:43;20.00;99.90
21331;DHT22;10824;51.632;4.950;2023-09-08T00:55:10;20.00;99.90
21331;DHT22;10824;51.632;4.950;2023-09-08T00:57:38;20.10;1.00
21331;DHT22;10824;51.632;4.950;2023-09-08T01:00:05;20.20;99.90
21331;DHT22;10824;51.632;4.950;2023-09-08T01:02:33;20.20;99.90
21331;DHT22;10824;51.632;4.950;2023-09-08T01:05:00;20.20;99.90
21331;DHT22;10824;51.632;4.950;2023-09-08T01:07:30;20.10;99.90
21331;DHT22;10824;51.632;4.950;2023-09-08T01:09:58;20.20;99.90
21331;DHT22;10824;51.632;4.950;2023-09-08T01:12:30;20.10;99.90
21331;DHT22;10824;51.632;4.950;2023-09-08T01:14:57;20.10;1.00
21331;DHT22;10824;51.632;4.950;2023-09-08T01:17:25;20.10;99.90
21331;DHT22;10824;51.632;4.950;2023-09-08T01:19:55;20.00;99.90
21331;DHT22;10824;51.632;4.950;2023-09-08T01:25:21;20.10;99.90
21331;DHT22;10824;51.632;4.950;2023-09-08T01:27:52;20.10;99.90
21331;DHT22;10824;51.632;4.950;2023-09-08T01:30:21;20.00;99.90
21331;DHT22;10824;51.632;4.950;2023-09-08T01:32:50;20.00;1.00
21331;DHT22;10824;51.632;4.950;2023-09-08T01:35:17;19.90;1.00
21331;DHT22;10824;51.632;4.950;2023-09-08T01:37:46;19.90;1.00
21331;DHT22;10824;51.632;4.950;2023-09-08T01:40:15;19.90;1.00
21331;DHT22;10824;51.632;4.950;2023-09-08T01:42:44;19.90;1.00
21331;DHT22;10824;51.632;4.950;2023-09-08T01:45:12;19.90;1.00
21331;DHT22;10824;51.632;4.950;2023-09-08T01:47:39;19.90;1.00
21331;DHT22;10824;51.632;4.950;2023-09-08T01:50:06;19.80;1.40
21331;DHT22;10824;51.632;4.950;2023-09-08T01:52:33;19.80;1.00
21331;DHT22;10824;51.632;4.950;2023-09-08T01:55:01;19.80;1.00
21331;DHT22;10824;51.632;4.950;2023-09-08T01:57:28;19.80;1.00
21331;DHT22;10824;51.632;4.950;2023-09-08T01:59:55;19.80;1.00
21331;DHT22;10824;51.632;4.950;2023-09-08T02:02:22;19.80;1.00
21331;DHT22;10824;51.632;4.950;2023-09-08T02:04:49;19.90;1.00
21331;DHT22;10824;51.632;4.950;2023-09-08T02:07:17;19.90;1.00
21331;DHT22;10824;51.632;4.950;2023-09-08T02:09:44;19.80;1.00
21331;DHT22;10824;51.632;4.950;2023-09-08T02:12:11;19.70;1.00
21331;DHT22;10824;51.632;4.950;2023-09-08T02:14:38;19.70;5.30
21331;DHT22;10824;51.632;4.950;2023-09-08T02:17:06;19.60;10.70
21331;DHT22;10824;51.632;4.950;2023-09-08T02:19:33;19.50;99.90
21331;DHT22;10824;51.632;4.950;2023-09-08T02:22:02;19.50;99.90
21331;DHT22;10824;51.632;4.950;2023-09-08T02:24:29;19.50;99.90
21331;DHT22;10824;51.632;4.950;2023-09-08T02:26:57;19.50;99.90
21331;DHT22;10824;51.632;4.950;2023-09-08T02:29:25;19.40;1.00
21331;DHT22;10824;51.632;4.950;2023-09-08T02:31:52;19.40;1.00
21331;DHT22;10824;51.632;4.950;2023-09-08T02:34:19;19.30;1.00
21331;DHT22;10824;51.632;4.950;2023-09-08T02:36:46;19.30;1.00
21331;DHT22;10824;51.632;4.950;2023-09-08T02:39:17;19.30;1.00
21331;DHT22;10824;51.632;4.950;2023-09-08T02:41:44;19.30;1.00
21331;DHT22;10824;51.632;4.950;2023-09-08T02:44:12;19.20;1.00
21331;DHT22;10824;51.632;4.950;2023-09-08T02:46:39;19.20;44.00
21331;DHT22;10824;51.632;4.950;2023-09-08T02:49:07;19.20;99.90
21331;DHT22;10824;51.632;4.950;2023-09-08T02:51:34;19.20;99.90
21331;DHT22;10824;51.632;4.950;2023-09-08T02:54:01;19.10;99.90
21331;DHT22;10824;51.632;4.950;2023-09-08T02:56:29;19.20;99.90
21331;DHT22;10824;51.632;4.950;2023-09-08T02:58:56;19.10;1.00
21331;DHT22;10824;51.632;4.950;2023-09-08T03:01:23;19.10;1.00
21331;DHT22;10824;51.632;4.950;2023-09-08T03:03:51;19.10;1.00
21331;DHT22;10824;51.632;4.950;2023-09-08T03:06:20;19.10;1.00
21331;DHT22;10824;51.632;4.950;2023-09-08T03:08:49;19.00;89.60
21331;DHT22;10824;51.632;4.950;2023-09-08T03:11:16;19.00;72.90
21331;DHT22;10824;51.632;4.950;2023-09-08T03:13:43;19.10;4.00
21331;DHT22;10824;51.632;4.950;2023-09-08T03:16:11;19.10;1.00
21331;DHT22;10824;51.632;4.950;2023-09-08T03:18:38;19.10;1.00
21331;DHT22;10824;51.632;4.950;2023-09-08T03:21:06;19.00;6.90
21331;DHT22;10824;51.632;4.950;2023-09-08T03:23:38;19.00;99.90
21331;DHT22;10824;51.632;4.950;2023-09-08T03:26:05;18.90;99.90
21331;DHT22;10824;51.632;4.950;2023-09-08T03:28:34;18.90;99.90
21331;DHT22;10824;51.632;4.950;2023-09-08T03:31:02;18.80;99.90
21331;DHT22;10824;51.632;4.950;2023-09-08T03:33:32;18.80;1.00
21331;DHT22;10824;51.632;4.950;2023-09-08T03:36:00;18.80;1.00
21331;DHT22;10824;51.632;4.950;2023-09-08T03:38:30;18.80;1.00
21331;DHT22;10824;51.632;4.950;2023-09-08T03:40:57;18.70;1.00
21331;DHT22;10824;51.632;4.950;2023-09-08T03:43:25;18.70;1.00
21331;DHT22;10824;51.632;4.950;2023-09-08T03:45:52;18.70;1.00
21331;DHT22;10824;51.632;4.950;2023-09-08T03:48:19;18.70;24.80
21331;DHT22;10824;51.632;4.950;2023-09-08T03:50:46;18.70;99.90
21331;DHT22;10824;51.632;4.950;2023-09-08T03:53:14;18.70;99.90
21331;DHT22;10824;51.632;4.950;2023-09-08T03:55:41;18.70;99.90
21331;DHT22;10824;51.632;4.950;2023-09-08T03:58:08;18.60;34.60
21331;DHT22;10824;51.632;4.950;2023-09-08T04:00:35;18.50;65.10
21331;DHT22;10824;51.632;4.950;2023-09-08T04:03:04;18.50;99.90
21331;DHT22;10824;51.632;4.950;2023-09-08T04:05:31;18.30;1.00
21331;DHT22;10824;51.632;4.950;2023-09-08T04:07:59;18.40;1.00
21331;DHT22;10824;51.632;4.950;2023-09-08T04:10:26;18.30;1.00
21331;DHT22;10824;51.632;4.950;2023-09-08T04:12:53;18.30;1.00
21331;DHT22;10824;51.632;4.950;2023-09-08T04:15:20;18.20;99.90
21331;DHT22;10824;51.632;4.950;2023-09-08T04:17:47;18.10;99.90
21331;DHT22;10824;51.632;4.950;2023-09-08T04:20:15;18.10;1.00
21331;DHT22;10824;51.632;4.950;2023-09-08T04:22:44;18.10;1.00
21331;DHT22;10824;51.632;4.950;2023-09-08T04:25:11;18.10;99.90
21331;DHT22;10824;51.632;4.950;2023-09-08T04:27:39;18.00;99.90
21331;DHT22;10824;51.632;4.950;2023-09-08T04:30:07;18.10;99.90
21331;DHT22;10824;51.632;4.950;2023-09-08T04:32:35;18.00;1.00
21331;DHT22;10824;51.632;4.950;2023-09-08T04:35:05;18.00;24.10
21331;DHT22;10824;51.632;4.950;2023-09-08T04:37:34;18.00;99.90
21331;DHT22;10824;51.632;4.950;2023-09-08T04:40:01;17.90;99.90
21331;DHT22;10824;51.632;4.950;2023-09-08T04:42:28;17.90;99.90
21331;DHT22;10824;51.632;4.950;2023-09-08T04:44:57;17.80;99.90
21331;DHT22;10824;51.632;4.950;2023-09-08T04:47:24;17.90;1.00
21331;DHT22;10824;51.632;4.950;2023-09-08T04:49:51;17.90;1.00
21331;DHT22;10824;51.632;4.950;2023-09-08T04:52:18;18.00;1.00
21331;DHT22;10824;51.632;4.950;2023-09-08T04:54:45;17.90;1.00
21331;DHT22;10824;51.632;4.950;2023-09-08T04:57:14;17.80;94.20
21331;DHT22;10824;51.632;4.950;2023-09-08T04:59:52;17.70;1.00
21331;DHT22;10824;51.632;4.950;2023-09-08T05:02:20;17.70;99.90
21331;DHT22;10824;51.632;4.950;2023-09-08T05:04:47;17.80;99.90
21331;DHT22;10824;51.632;4.950;2023-09-08T05:07:17;17.90;1.00
21331;DHT22;10824;51.632;4.950;2023-09-08T05:09:46;17.80;49.20
21331;DHT22;10824;51.632;4.950;2023-09-08T05:12:15;17.70;99.90
21331;DHT22;10824;51.632;4.950;2023-09-08T05:14:42;17.70;1.00
21331;DHT22;10824;51.632;4.950;2023-09-08T05:17:09;17.70;1.00
21331;DHT22;10824;51.632;4.950;2023-09-08T05:19:37;17.70;1.00
21331;DHT22;10824;51.632;4.950;2023-09-08T05:22:05;17.70;99.90
21331;DHT22;10824;51.632;4.950;2023-09-08T05:24:34;17.80;84.70
21331;DHT22;10824;51.632;4.950;2023-09-08T05:27:09;17.80;48.60
21331;DHT22;10824;51.632;4.950;2023-09-08T05:29:36;17.90;1.00
21331;DHT22;10824;51.632;4.950;2023-09-08T05:32:03;17.90;1.00
21331;DHT22;10824;51.632;4.950;2023-09-08T05:34:31;17.80;1.00
21331;DHT22;10824;51.632;4.950;2023-09-08T05:36:58;17.80;99.90
21331;DHT22;10824;51.632;4.950;2023-09-08T05:39:26;17.80;99.90
21331;DHT22;10824;51.632;4.950;2023-09-08T05:41:53;17.80;99.90
21331;DHT22;10824;51.632;4.950;2023-09-08T05:44:21;17.90;99.90
21331;DHT22;10824;51.632;4.950;2023-09-08T05:46:48;17.90;99.90
21331;DHT22;10824;51.632;4.950;2023-09-08T05:49:16;18.00;99.90
21331;DHT22;10824;51.632;4.950;2023-09-08T05:51:45;18.00;1.00
21331;DHT22;10824;51.632;4.950;2023-09-08T05:54:12;18.10;1.00
21331;DHT22;10824;51.632;4.950;2023-09-08T05:56:40;18.10;1.00
21331;DHT22;10824;51.632;4.950;2023-09-08T05:59:07;18.10;99.90
21331;DHT22;10824;51.632;4.950;2023-09-08T06:01:36;18.20;1.00
21331;DHT22;10824;51.632;4.950;2023-09-08T06:04:06;18.20;99.90
21331;DHT22;10824;51.632;4.950;2023-09-08T06:06:34;18.30;99.90
21331;DHT22;10824;51.632;4.950;2023-09-08T06:09:01;18.40;99.90
21331;DHT22;10824;51.632;4.950;2023-09-08T06:11:29;18.40;99.90
21331;DHT22;10824;51.632;4.950;2023-09-08T06:13:57;18.40;99.90
21331;DHT22;10824;51.632;4.950;2023-09-08T06:16:30;18.50;1.00
21331;DHT22;10824;51.632;4.950;2023-09-08T06:18:57;18.60;1.00
21331;DHT22;10824;51.632;4.950;2023-09-08T06:21:26;18.70;1.00
21331;DHT22;10824;51.632;4.950;2023-09-08T06:23:53;18.80;99.90
21331;DHT22;10824;51.632;4.950;2023-09-08T06:26:20;18.90;60.40
21331;DHT22;10824;51.632;4.950;2023-09-08T06:28:54;18.90;1.00
21331;DHT22;10824;51.632;4.950;2023-09-08T06:31:23;19.00;1.00
21331;DHT22;10824;51.632;4.950;2023-09-08T06:33:51;19.00;1.00
21331;DHT22;10824;51.632;4.950;2023-09-08T06:36:19;19.10;99.90
21331;DHT22;10824;51.632;4.950;2023-09-08T06:38:47;19.20;1.00
21331;DHT22;10824;51.632;4.950;2023-09-08T06:41:14;19.40;1.00
21331;DHT22;10824;51.632;4.950;2023-09-08T06:43:42;19.40;99.90
21331;DHT22;10824;51.632;4.950;2023-09-08T06:46:15;19.50;99.90
21331;DHT22;10824;51.632;4.950;2023-09-08T06:48:42;19.50;1.00
21331;DHT22;10824;51.632;4.950;2023-09-08T06:51:10;19.60;1.00
21331;DHT22;10824;51.632;4.950;2023-09-08T06:53:39;19.60;1.00
21331;DHT22;10824;51.632;4.950;2023-09-08T06:56:06;19.70;1.00
21331;DHT22;10824;51.632;4.950;2023-09-08T06:58:33;19.70;1.00
21331;DHT22;10824;51.632;4.950;2023-09-08T07:01:02;19.80;99.90
21331;DHT22;10824;51.632;4.950;2023-09-08T07:03:30;19.90;99.90
21331;DHT22;10824;51.632;4.950;2023-09-08T07:06:07;20.00;99.90
21331;DHT22;10824;51.632;4.950;2023-09-08T07:08:34;20.20;36.20
21331;DHT22;10824;51.632;4.950;2023-09-08T07:11:02;20.20;1.00
21331;DHT22;10824;51.632;4.950;2023-09-08T07:13:32;20.30;99.90
21331;DHT22;10824;51.632;4.950;2023-09-08T07:16:01;20.40;1.00
21331;DHT22;10824;51.632;4.950;2023-09-08T07:18:29;20.50;1.00
21331;DHT22;10824;51.632;4.950;2023-09-08T07:21:00;20.60;1.00
21331;DHT22;10824;51.632;4.950;2023-09-08T07:23:27;20.70;99.90
21331;DHT22;10824;51.632;4.950;2023-09-08T07:25:54;20.90;99.90
21331;DHT22;10824;51.632;4.950;2023-09-08T07:28:25;20.90;1.00
21331;DHT22;10824;51.632;4.950;2023-09-08T07:31:03;21.10;99.90
21331;DHT22;10824;51.632;4.950;2023-09-08T07:33:35;21.20;99.90
21331;DHT22;10824;51.632;4.950;2023-09-08T07:36:08;21.30;1.00
21331;DHT22;10824;51.632;4.950;2023-09-08T07:38:38;21.50;99.90
21331;DHT22;10824;51.632;4.950;2023-09-08T07:41:06;21.50;1.00
21331;DHT22;10824;51.632;4.950;2023-09-08T07:43:33;21.70;1.00
21331;DHT22;10824;51.632;4.950;2023-09-08T07:46:02;21.80;1.00
21331;DHT22;10824;51.632;4.950;2023-09-08T07:48:30;21.90;99.90
21331;DHT22;10824;51.632;4.950;2023-09-08T07:50:57;22.00;99.90
21331;DHT22;10824;51.632;4.950;2023-09-08T07:53:27;22.10;99.90
21331;DHT22;10824;51.632;4.950;2023-09-08T07:55:54;22.20;99.90
21331;DHT22;10824;51.632;4.950;2023-09-08T07:58:22;22.30;1.00
21331;DHT22;10824;51.632;4.950;2023-09-08T08:00:49;22.40;1.00
21331;DHT22;10824;51.632;4.950;2023-09-08T08:03:16;22.50;99.90
21331;DHT22;10824;51.632;4.950;2023-09-08T08:05:47;22.60;99.90
21331;DHT22;10824;51.632;4.950;2023-09-08T08:08:14;22.60;99.90
21331;DHT22;10824;51.632;4.950;2023-09-08T08:10:41;22.70;1.00
21331;DHT22;10824;51.632;4.950;2023-09-08T08:13:09;22.80;1.00
21331;DHT22;10824;51.632;4.950;2023-09-08T08:15:38;22.80;1.00
21331;DHT22;10824;51.632;4.950;2023-09-08T08:18:06;22.90;1.00
21331;DHT22;10824;51.632;4.950;2023-09-08T08:20:34;23.00;1.00
21331;DHT22;10824;51.632;4.950;2023-09-08T08:23:03;23.10;1.00
21331;DHT22;10824;51.632;4.950;2023-09-08T08:25:32;23.20;1.00
21331;DHT22;10824;51.632;4.950;2023-09-08T08:27:59;23.30;1.00
21331;DHT22;10824;51.632;4.950;2023-09-08T08:30:28;23.40;1.00
21331;DHT22;10824;51.632;4.950;2023-09-08T08:32:57;23.50;99.90
21331;DHT22;10824;51.632;4.950;2023-09-08T08:35:24;23.60;99.90
21331;DHT22;10824;51.632;4.950;2023-09-08T08:37:51;23.70;99.90
21331;DHT22;10824;51.632;4.950;2023-09-08T08:40:24;23.80;99.90
21331;DHT22;10824;51.632;4.950;2023-09-08T08:42:56;23.80;1.00
21331;DHT22;10824;51.632;4.950;2023-09-08T08:45:29;23.90;1.00
21331;DHT22;10824;51.632;4.950;2023-09-08T08:47:57;24.10;1.00
21331;DHT22;10824;51.632;4.950;2023-09-08T08:50:28;24.10;1.00
21331;DHT22;10824;51.632;4.950;2023-09-08T08:53:03;24.20;1.00
21331;DHT22;10824;51.632;4.950;2023-09-08T08:55:54;24.40;1.00
21331;DHT22;10824;51.632;4.950;2023-09-08T08:58:23;24.50;99.90
21331;DHT22;10824;51.632;4.950;2023-09-08T09:00:54;24.50;99.90
21331;DHT22;10824;51.632;4.950;2023-09-08T09:03:27;24.50;1.00
21331;DHT22;10824;51.632;4.950;2023-09-08T09:05:55;24.60;1.00
21331;DHT22;10824;51.632;4.950;2023-09-08T09:08:23;24.70;1.00
21331;DHT22;10824;51.632;4.950;2023-09-08T09:10:52;25.00;22.70
21331;DHT22;10824;51.632;4.950;2023-09-08T09:13:19;25.10;2.10
21331;DHT22;10824;51.632;4.950;2023-09-08T09:15:49;25.10;74.50
21331;DHT22;10824;51.632;4.950;2023-09-08T09:18:16;25.10;1.00
21331;DHT22;10824;51.632;4.950;2023-09-08T09:20:54;25.40;99.90
21331;DHT22;10824;51.632;4.950;2023-09-08T09:23:40;25.40;99.90
21331;DHT22;10824;51.632;4.950;2023-09-08T09:26:08;25.40;1.00
21331;DHT22;10824;51.632;4.950;2023-09-08T09:28:47;25.60;1.00
21331;DHT22;10824;51.632;4.950;2023-09-08T09:31:14;25.60;99.90
21331;DHT22;10824;51.632;4.950;2023-09-08T09:33:41;25.70;62.90
21331;DHT22;10824;51.632;4.950;2023-09-08T09:36:08;25.60;1.00
21331;DHT22;10824;51.632;4.950;2023-09-08T09:38:36;25.80;1.00
21331;DHT22;10824;51.632;4.950;2023-09-08T09:41:04;25.90;1.00
21331;DHT22;10824;51.632;4.950;2023-09-08T09:43:32;26.10;99.90
21331;DHT22;10824;51.632;4.950;2023-09-08T09:46:01;26.20;99.90
21331;DHT22;10824;51.632;4.950;2023-09-08T09:48:29;26.30;99.90
21331;DHT22;10824;51.632;4.950;2023-09-08T09:50:56;26.50;99.90
21331;DHT22;10824;51.632;4.950;2023-09-08T09:53:23;26.70;99.90
21331;DHT22;10824;51.632;4.950;2023-09-08T09:55:51;26.80;12.60
21331;DHT22;10824;51.632;4.950;2023-09-08T09:58:20;26.70;1.00
21331;DHT22;10824;51.632;4.950;2023-09-08T10:00:50;26.80;1.00
21331;DHT22;10824;51.632;4.950;2023-09-08T10:03:18;26.80;1.00
21331;DHT22;10824;51.632;4.950;2023-09-08T10:05:47;26.90;1.00
21331;DHT22;10824;51.632;4.950;2023-09-08T10:08:16;27.00;1.00
21331;DHT22;10824;51.632;4.950;2023-09-08T10:10:46;27.10;1.00
21331;DHT22;10824;51.632;4.950;2023-09-08T10:13:25;27.10;1.00
21331;DHT22;10824;51.632;4.950;2023-09-08T10:15:57;27.20;1.00
21331;DHT22;10824;51.632;4.950;2023-09-08T10:18:29;27.40;1.00
21331;DHT22;10824;51.632;4.950;2023-09-08T10:21:00;27.40;1.00
21331;DHT22;10824;51.632;4.950;2023-09-08T10:23:41;27.60;1.00
21331;DHT22;10824;51.632;4.950;2023-09-08T10:26:14;27.90;1.00
21331;DHT22;10824;51.632;4.950;2023-09-08T10:28:44;28.10;99.90
21331;DHT22;10824;51.632;4.950;2023-09-08T10:31:12;28.00;99.90
21331;DHT22;10824;51.632;4.950;2023-09-08T10:33:42;27.90;99.90
21331;DHT22;10824;51.632;4.950;2023-09-08T10:36:10;28.00;99.90
21331;DHT22;10824;51.632;4.950;2023-09-08T10:38:37;28.10;99.90
21331;DHT22;10824;51.632;4.950;2023-09-08T10:43:44;28.30;99.90
21331;DHT22;10824;51.632;4.950;2023-09-08T10:46:22;28.40;99.90
21331;DHT22;10824;51.632;4.950;2023-09-08T10:48:50;28.30;99.90
21331;DHT22;10824;51.632;4.950;2023-09-08T10:51:20;28.40;99.90
21331;DHT22;10824;51.632;4.950;2023-09-08T10:53:49;28.60;99.90
21331;DHT22;10824;51.632;4.950;2023-09-08T10:56:17;28.80;99.90
21331;DHT22;10824;51.632;4.950;2023-09-08T10:58:51;29.10;99.90
21331;DHT22;10824;51.632;4.950;2023-09-08T11:01:21;28.80;99.90
21331;DHT22;10824;51.632;4.950;2023-09-08T11:03:57;29.00;99.90
21331;DHT22;10824;51.632;4.950;2023-09-08T11:06:26;29.10;99.90
21331;DHT22;10824;51.632;4.950;2023-09-08T11:09:06;29.00;99.90
21331;DHT22;10824;51.632;4.950;2023-09-08T11:11:35;29.10;99.90
21331;DHT22;10824;51.632;4.950;2023-09-08T11:14:04;29.20;99.90
21331;DHT22;10824;51.632;4.950;2023-09-08T11:16:31;29.20;99.90
21331;DHT22;10824;51.632;4.950;2023-09-08T11:19:00;29.40;99.90
21331;DHT22;10824;51.632;4.950;2023-09-08T11:21:31;29.50;99.90
21331;DHT22;10824;51.632;4.950;2023-09-08T11:24:04;29.40;99.90
21331;DHT22;10824;51.632;4.950;2023-09-08T11:26:33;29.40;99.90
21331;DHT22;10824;51.632;4.950;2023-09-08T11:29:01;29.60;99.90
21331;DHT22;10824;51.632;4.950;2023-09-08T11:31:29;29.60;99.90
21331;DHT22;10824;51.632;4.950;2023-09-08T11:33:57;29.60;99.90
21331;DHT22;10824;51.632;4.950;2023-09-08T11:36:26;29.80;99.90
21331;DHT22;10824;51.632;4.950;2023-09-08T11:38:55;29.60;99.90
21331;DHT22;10824;51.632;4.950;2023-09-08T11:41:22;29.50;99.90
21331;DHT22;10824;51.632;4.950;2023-09-08T11:43:50;29.70;99.90
21331;DHT22;10824;51.632;4.950;2023-09-08T11:46:19;29.90;99.90
21331;DHT22;10824;51.632;4.950;2023-09-08T11:48:49;30.00;99.90
21331;DHT22;10824;51.632;4.950;2023-09-08T11:51:16;30.10;99.90
21331;DHT22;10824;51.632;4.950;2023-09-08T11:53:43;30.40;99.90
21331;DHT22;10824;51.632;4.950;2023-09-08T11:56:11;30.50;99.90
21331;DHT22;10824;51.632;4.950;2023-09-08T11:58:38;30.40;99.90
21331;DHT22;10824;51.632;4.950;2023-09-08T12:01:06;30.40;99.90
21331;DHT22;10824;51.632;4.950;2023-09-08T12:03:34;30.50;99.90
21331;DHT22;10824;51.632;4.950;2023-09-08T12:06:01;30.60;99.90
21331;DHT22;10824;51.632;4.950;2023-09-08T12:08:31;30.70;93.70
21331;DHT22;10824;51.632;4.950;2023-09-08T12:10:59;30.60;94.80
21331;DHT22;10824;51.632;4.950;2023-09-08T12:13:26;30.90;95.40
21331;DHT22;10824;51.632;4.950;2023-09-08T12:15:53;30.70;85.00
21331;DHT22;10824;51.632;4.950;2023-09-08T12:18:37;30.70;91.60
21331;DHT22;10824;51.632;4.950;2023-09-08T12:21:05;31.00;79.20
21331;DHT22;10824;51.632;4.950;2023-09-08T12:23:32;31.10;76.90
21331;DHT22;10824;51.632;4.950;2023-09-08T12:25:59;31.10;53.80
21331;DHT22;10824;51.632;4.950;2023-09-08T12:28:30;31.10;51.10
21331;DHT22;10824;51.632;4.950;2023-09-08T12:31:01;31.00;54.40
21331;DHT22;10824;51.632;4.950;2023-09-08T12:33:28;31.10;52.30
21331;DHT22;10824;51.632;4.950;2023-09-08T12:35:58;31.00;52.10
21331;DHT22;10824;51.632;4.950;2023-09-08T12:38:30;30.90;42.60
21331;DHT22;10824;51.632;4.950;2023-09-08T12:40:59;31.00;44.70
21331;DHT22;10824;51.632;4.950;2023-09-08T12:43:26;31.20;36.90
21331;DHT22;10824;51.632;4.950;2023-09-08T12:45:55;31.10;24.80
21331;DHT22;10824;51.632;4.950;2023-09-08T12:48:23;31.40;38.90
21331;DHT22;10824;51.632;4.950;2023-09-08T12:50:51;31.40;21.90
21331;DHT22;10824;51.632;4.950;2023-09-08T12:53:18;31.60;11.80
21331;DHT22;10824;51.632;4.950;2023-09-08T12:55:46;31.70;9.10
21331;DHT22;10824;51.632;4.950;2023-09-08T12:58:13;31.40;11.80
21331;DHT22;10824;51.632;4.950;2023-09-08T13:00:40;31.40;22.60
21331;DHT22;10824;51.632;4.950;2023-09-08T13:03:07;31.40;13.20
21331;DHT22;10824;51.632;4.950;2023-09-08T13:05:35;31.20;7.90
21331;DHT22;10824;51.632;4.950;2023-09-08T13:08:03;31.20;6.00
21331;DHT22;10824;51.632;4.950;2023-09-08T13:10:31;31.10;5.50
21331;DHT22;10824;51.632;4.950;2023-09-08T13:12:58;31.20;5.30
21331;DHT22;10824;51.632;4.950;2023-09-08T13:15:25;31.50;3.20
21331;DHT22;10824;51.632;4.950;2023-09-08T13:17:52;31.80;1.00
21331;DHT22;10824;51.632;4.950;2023-09-08T13:20:20;32.00;1.00
21331;DHT22;10824;51.632;4.950;2023-09-08T13:22:47;31.90;1.00
21331;DHT22;10824;51.632;4.950;2023-09-08T13:25:14;31.70;1.00
21331;DHT22;10824;51.632;4.950;2023-09-08T13:27:42;31.60;1.00
21331;DHT22;10824;51.632;4.950;2023-09-08T13:30:11;31.90;1.00
21331;DHT22;10824;51.632;4.950;2023-09-08T13:32:41;32.30;15.90
21331;DHT22;10824;51.632;4.950;2023-09-08T13:35:09;32.20;34.60
21331;DHT22;10824;51.632;4.950;2023-09-08T13:37:37;32.10;52.00
21331;DHT22;10824;51.632;4.950;2023-09-08T13:40:07;32.20;53.50
21331;DHT22;10824;51.632;4.950;2023-09-08T13:42:36;31.90;63.30
21331;DHT22;10824;51.632;4.950;2023-09-08T13:45:04;31.90;69.00
21331;DHT22;10824;51.632;4.950;2023-09-08T13:47:33;32.00;66.70
21331;DHT22;10824;51.632;4.950;2023-09-08T13:50:05;31.70;67.00
21331;DHT22;10824;51.632;4.950;2023-09-08T13:52:33;32.00;58.70
21331;DHT22;10824;51.632;4.950;2023-09-08T13:55:07;32.40;73.60
21331;DHT22;10824;51.632;4.950;2023-09-08T13:57:49;32.00;80.50
21331;DHT22;10824;51.632;4.950;2023-09-08T14:00:27;32.20;85.70
21331;DHT22;10824;51.632;4.950;2023-09-08T14:03:05;32.10;93.40
21331;DHT22;10824;51.632;4.950;2023-09-08T14:05:41;31.90;71.70
21331;DHT22;10824;51.632;4.950;2023-09-08T14:08:13;32.10;86.00
21331;DHT22;10824;51.632;4.950;2023-09-08T14:10:44;32.20;86.60
21331;DHT22;10824;51.632;4.950;2023-09-08T14:13:14;32.10;98.50
21331;DHT22;10824;51.632;4.950;2023-09-08T14:15:49;32.10;97.90
21331;DHT22;10824;51.632;4.950;2023-09-08T14:18:21;32.30;99.90
21331;DHT22;10824;51.632;4.950;2023-09-08T14:20:53;32.30;99.90
21331;DHT22;10824;51.632;4.950;2023-09-08T14:23:20;31.80;99.90
21331;DHT22;10824;51.632;4.950;2023-09-08T14:25:50;31.80;99.90
21331;DHT22;10824;51.632;4.950;2023-09-08T14:28:18;31.80;99.90
21331;DHT22;10824;51.632;4.950;2023-09-08T14:30:45;31.80;99.90
21331;DHT22;10824;51.632;4.950;2023-09-08T14:33:13;32.00;99.90
21331;DHT22;10824;51.632;4.950;2023-09-08T14:35:43;32.40;99.90
21331;DHT22;10824;51.632;4.950;2023-09-08T14:38:13;32.40;99.90
21331;DHT22;10824;51.632;4.950;2023-09-08T14:40:44;32.40;99.90
21331;DHT22;10824;51.632;4.950;2023-09-08T14:43:12;32.60;99.90
21331;DHT22;10824;51.632;4.950;2023-09-08T14:45:45;32.40;99.90
21331;DHT22;10824;51.632;4.950;2023-09-08T14:48:12;32.20;99.90
21331;DHT22;10824;51.632;4.950;2023-09-08T14:50:40;32.30;99.90
21331;DHT22;10824;51.632;4.950;2023-09-08T14:53:07;32.40;99.90
21331;DHT22;10824;51.632;4.950;2023-09-08T14:55:35;32.50;99.90
21331;DHT22;10824;51.632;4.950;2023-09-08T14:58:03;32.50;99.90
21331;DHT22;10824;51.632;4.950;2023-09-08T15:00:30;32.60;99.90
21331;DHT22;10824;51.632;4.950;2023-09-08T15:02:57;32.60;99.90
21331;DHT22;10824;51.632;4.950;2023-09-08T15:05:26;32.60;99.90
21331;DHT22;10824;51.632;4.950;2023-09-08T15:07:55;32.30;99.90
21331;DHT22;10824;51.632;4.950;2023-09-08T15:10:22;32.00;99.90
21331;DHT22;10824;51.632;4.950;2023-09-08T15:12:49;32.10;99.90
21331;DHT22;10824;51.632;4.950;2023-09-08T15:15:17;32.00;99.90
21331;DHT22;10824;51.632;4.950;2023-09-08T15:17:51;32.20;99.90
21331;DHT22;10824;51.632;4.950;2023-09-08T15:20:19;32.20;99.90
21331;DHT22;10824;51.632;4.950;2023-09-08T15:22:47;32.30;99.90
21331;DHT22;10824;51.632;4.950;2023-09-08T15:25:14;32.40;99.90
21331;DHT22;10824;51.632;4.950;2023-09-08T15:27:41;32.20;99.90
21331;DHT22;10824;51.632;4.950;2023-09-08T15:30:12;32.20;99.90
21331;DHT22;10824;51.632;4.950;2023-09-08T15:32:42;32.20;99.90
21331;DHT22;10824;51.632;4.950;2023-09-08T15:35:09;32.20;99.90
21331;DHT22;10824;51.632;4.950;2023-09-08T15:37:36;32.30;99.90
21331;DHT22;10824;51.632;4.950;2023-09-08T15:40:04;32.00;99.90
21331;DHT22;10824;51.632;4.950;2023-09-08T15:42:31;32.10;99.90
21331;DHT22;10824;51.632;4.950;2023-09-08T15:44:59;32.10;99.90
21331;DHT22;10824;51.632;4.950;2023-09-08T15:47:26;32.10;99.90
21331;DHT22;10824;51.632;4.950;2023-09-08T15:49:53;31.90;99.90
21331;DHT22;10824;51.632;4.950;2023-09-08T15:52:21;31.80;99.90